createdAt,value
2022-10-19T00:00:19.108Z,0
2022-10-19T00:01:19.101Z,0
2022-10-19T00:02:19.280Z,0
2022-10-19T00:03:20.714Z,0
2022-10-19T00:04:19.104Z,0
2022-10-19T00:05:19.109Z,0
2022-10-19T00:06:19.106Z,0
2022-10-19T00:07:19.095Z,0
2022-10-19T00:08:19.101Z,0
2022-10-19T00:09:19.094Z,0
2022-10-19T00:10:19.111Z,0
2022-10-19T00:11:19.106Z,0
2022-10-19T00:12:19.110Z,0
2022-10-19T00:13:19.114Z,0
2022-10-19T00:14:19.099Z,0
2022-10-19T00:15:19.104Z,0
2022-10-19T00:16:19.113Z,0
2022-10-19T00:17:19.112Z,0
2022-10-19T00:18:19.101Z,0
2022-10-19T00:19:19.107Z,0
2022-10-19T00:20:19.112Z,0
2022-10-19T00:21:19.100Z,0
2022-10-19T00:22:19.131Z,0
2022-10-19T00:23:19.118Z,0
2022-10-19T00:24:19.317Z,0
2022-10-19T00:25:19.095Z,0
2022-10-19T00:26:19.107Z,0
2022-10-19T00:27:19.111Z,0
2022-10-19T00:28:19.111Z,0
2022-10-19T00:29:19.156Z,0
2022-10-19T00:30:19.521Z,0
2022-10-19T00:31:19.696Z,0
2022-10-19T00:32:19.987Z,0
2022-10-19T00:33:19.110Z,0
2022-10-19T00:34:19.384Z,0
2022-10-19T00:35:19.131Z,0
2022-10-19T00:36:19.217Z,0
2022-10-19T00:37:19.109Z,0
2022-10-19T00:38:19.102Z,0
2022-10-19T00:39:19.119Z,0
2022-10-19T00:40:19.099Z,0
2022-10-19T00:41:19.097Z,0
2022-10-19T00:42:19.092Z,0
2022-10-19T00:43:19.100Z,0
2022-10-19T00:44:19.094Z,0
2022-10-19T00:45:19.111Z,0
2022-10-19T00:46:19.103Z,0
2022-10-19T00:47:19.213Z,0
2022-10-19T00:48:19.086Z,0
2022-10-19T00:49:19.113Z,0
2022-10-19T00:50:19.110Z,0
2022-10-19T00:51:19.097Z,0
2022-10-19T00:52:19.119Z,0
2022-10-19T00:53:19.118Z,0
2022-10-19T00:54:19.125Z,0
2022-10-19T00:55:19.093Z,0
2022-10-19T00:56:19.113Z,0
2022-10-19T00:57:19.109Z,0
2022-10-19T00:58:19.224Z,0
2022-10-19T00:59:19.105Z,0
2022-10-19T01:00:19.104Z,0
2022-10-19T01:01:19.127Z,0
2022-10-19T01:02:19.089Z,0
2022-10-19T01:03:19.092Z,0
2022-10-19T01:04:19.097Z,0
2022-10-19T01:05:19.089Z,0
2022-10-19T01:06:19.107Z,0
2022-10-19T01:07:19.100Z,0
2022-10-19T01:08:19.105Z,0
2022-10-19T01:09:19.113Z,0
2022-10-19T01:10:19.117Z,0
2022-10-19T01:11:19.107Z,0
2022-10-19T01:12:19.095Z,0
2022-10-19T01:13:19.139Z,0
2022-10-19T01:14:19.112Z,0
2022-10-19T01:15:19.105Z,0
2022-10-19T01:16:19.109Z,0
2022-10-19T01:17:19.091Z,0
2022-10-19T01:18:19.129Z,0
2022-10-19T01:19:19.107Z,0
2022-10-19T01:20:19.103Z,0
2022-10-19T01:21:19.102Z,0
2022-10-19T01:22:19.209Z,0
2022-10-19T01:23:19.185Z,0
2022-10-19T01:24:19.104Z,0
2022-10-19T01:25:19.132Z,0
2022-10-19T01:26:19.353Z,0
2022-10-19T01:27:19.632Z,0
2022-10-19T01:28:19.768Z,0
2022-10-19T01:29:19.100Z,0
2022-10-19T01:30:19.104Z,0
2022-10-19T01:31:19.100Z,0
2022-10-19T01:32:19.111Z,0
2022-10-19T01:33:19.140Z,0
2022-10-19T01:34:19.241Z,0
2022-10-19T01:35:19.125Z,0
2022-10-19T01:36:19.112Z,0
2022-10-19T01:37:19.099Z,0
2022-10-19T01:38:19.139Z,0
2022-10-19T01:39:19.096Z,0
2022-10-19T01:40:19.108Z,0
2022-10-19T01:41:19.098Z,0
2022-10-19T01:42:19.107Z,0
2022-10-19T01:43:19.140Z,0
2022-10-19T01:44:19.102Z,0
2022-10-19T01:45:19.137Z,0
2022-10-19T01:46:19.235Z,0
2022-10-19T01:47:19.114Z,0
2022-10-19T01:48:19.137Z,0
2022-10-19T01:49:19.079Z,0
2022-10-19T01:50:19.106Z,0
2022-10-19T01:51:19.098Z,0
2022-10-19T01:52:19.107Z,0
2022-10-19T01:53:19.161Z,0
2022-10-19T01:54:19.116Z,0
2022-10-19T01:55:19.097Z,0
2022-10-19T01:56:19.117Z,0
2022-10-19T01:57:19.113Z,0
2022-10-19T01:58:19.211Z,0
2022-10-19T01:59:19.366Z,0
2022-10-19T02:00:19.128Z,0
2022-10-19T02:01:19.373Z,0
2022-10-19T02:02:19.259Z,0
2022-10-19T02:03:19.478Z,0
2022-10-19T02:04:19.127Z,0
2022-10-19T02:05:19.107Z,0
2022-10-19T02:06:19.328Z,0
2022-10-19T02:07:19.663Z,0
2022-10-19T02:08:19.098Z,0
2022-10-19T02:09:19.341Z,0
2022-10-19T02:10:19.115Z,0
2022-10-19T02:11:19.095Z,0
2022-10-19T02:12:19.274Z,0
2022-10-19T02:13:19.099Z,0
2022-10-19T02:14:19.361Z,0
2022-10-19T02:15:19.105Z,0
2022-10-19T02:16:19.244Z,0
2022-10-19T02:17:19.418Z,0
2022-10-19T02:18:19.105Z,0
2022-10-19T02:19:19.371Z,0
2022-10-19T02:20:19.104Z,0
2022-10-19T02:21:19.102Z,0
2022-10-19T02:22:19.104Z,0
2022-10-19T02:23:19.102Z,0
2022-10-19T02:24:19.169Z,0
2022-10-19T02:25:19.268Z,0
2022-10-19T02:26:19.209Z,0
2022-10-19T02:27:19.098Z,0
2022-10-19T02:28:19.186Z,0
2022-10-19T02:29:19.385Z,0
2022-10-19T02:30:19.294Z,0
2022-10-19T02:31:19.099Z,0
2022-10-19T02:32:19.123Z,0
2022-10-19T02:33:19.092Z,0
2022-10-19T02:34:19.094Z,0
2022-10-19T02:35:19.127Z,0
2022-10-19T02:36:19.112Z,0
2022-10-19T02:37:19.937Z,0
2022-10-19T02:38:19.106Z,0
2022-10-19T02:39:19.116Z,0
2022-10-19T02:40:19.172Z,0
2022-10-19T02:41:19.114Z,0
2022-10-19T02:42:19.335Z,0
2022-10-19T02:43:19.100Z,0
2022-10-19T02:44:19.105Z,0
2022-10-19T02:45:19.115Z,0
2022-10-19T02:46:19.120Z,0
2022-10-19T02:47:19.105Z,0
2022-10-19T02:48:19.116Z,0
2022-10-19T02:49:19.113Z,0
2022-10-19T02:50:19.096Z,0
2022-10-19T02:51:19.106Z,0
2022-10-19T02:52:19.122Z,0
2022-10-19T02:53:19.128Z,0
2022-10-19T02:54:19.102Z,0
2022-10-19T02:55:19.103Z,0
2022-10-19T02:56:19.109Z,0
2022-10-19T02:57:19.111Z,0
2022-10-19T02:58:19.106Z,0
2022-10-19T02:59:19.097Z,0
2022-10-19T03:00:19.097Z,0
2022-10-19T03:01:19.153Z,0
2022-10-19T03:02:19.112Z,0
2022-10-19T03:03:19.115Z,0
2022-10-19T03:04:19.124Z,0
2022-10-19T03:05:19.246Z,0
2022-10-19T03:06:19.117Z,0
2022-10-19T03:07:19.095Z,0
2022-10-19T03:08:19.101Z,0
2022-10-19T03:09:19.114Z,0
2022-10-19T03:10:19.092Z,0
2022-10-19T03:11:19.101Z,0
2022-10-19T03:12:19.104Z,0
2022-10-19T03:13:19.107Z,0
2022-10-19T03:14:19.120Z,0
2022-10-19T03:15:19.105Z,0
2022-10-19T03:16:19.119Z,0
2022-10-19T03:17:19.165Z,0
2022-10-19T03:18:19.103Z,0
2022-10-19T03:19:19.102Z,0
2022-10-19T03:20:19.098Z,0
2022-10-19T03:21:19.098Z,0
2022-10-19T03:22:19.092Z,0
2022-10-19T03:23:19.092Z,0
2022-10-19T03:24:19.138Z,0
2022-10-19T03:25:19.115Z,0
2022-10-19T03:26:19.103Z,0
2022-10-19T03:27:19.137Z,0
2022-10-19T03:28:19.167Z,0
2022-10-19T03:29:19.161Z,0
2022-10-19T03:30:19.102Z,0
2022-10-19T03:31:19.110Z,0
2022-10-19T03:32:19.104Z,0
2022-10-19T03:33:19.133Z,0
2022-10-19T03:34:19.155Z,0
2022-10-19T03:35:19.107Z,0
2022-10-19T03:36:19.104Z,0
2022-10-19T03:37:19.179Z,0
2022-10-19T03:38:19.107Z,0
2022-10-19T03:39:19.165Z,0
2022-10-19T03:40:19.209Z,0
2022-10-19T03:41:19.111Z,0
2022-10-19T03:42:19.112Z,0
2022-10-19T03:43:19.090Z,0
2022-10-19T03:44:19.157Z,0
2022-10-19T03:45:19.470Z,0
2022-10-19T03:46:19.669Z,0
2022-10-19T03:47:19.946Z,0
2022-10-19T03:48:19.147Z,0
2022-10-19T03:49:19.446Z,0
2022-10-19T03:50:19.124Z,0
2022-10-19T03:51:19.103Z,0
2022-10-19T03:52:19.104Z,0
2022-10-19T03:53:19.114Z,0
2022-10-19T03:54:21.466Z,0
2022-10-19T03:55:19.314Z,0
2022-10-19T03:56:19.126Z,0
2022-10-19T03:57:19.150Z,0
2022-10-19T03:58:19.114Z,0
2022-10-19T03:59:19.136Z,0
2022-10-19T04:00:19.111Z,0
2022-10-19T04:01:19.161Z,0
2022-10-19T04:02:19.109Z,0
2022-10-19T04:03:19.117Z,0
2022-10-19T04:04:19.225Z,0
2022-10-19T04:05:19.097Z,0
2022-10-19T04:06:21.161Z,0
2022-10-19T04:07:19.109Z,0
2022-10-19T04:08:19.110Z,0
2022-10-19T04:09:19.116Z,0
2022-10-19T04:10:19.113Z,0
2022-10-19T04:11:19.092Z,0
2022-10-19T04:12:19.109Z,0
2022-10-19T04:13:19.116Z,0
2022-10-19T04:14:22.980Z,0
2022-10-19T04:15:19.116Z,0
2022-10-19T04:16:19.098Z,0
2022-10-19T04:17:19.121Z,0
2022-10-19T04:18:19.101Z,0
2022-10-19T04:19:19.102Z,0
2022-10-19T04:20:19.108Z,0
2022-10-19T04:21:19.321Z,0
2022-10-19T04:22:19.111Z,0
2022-10-19T04:23:19.422Z,0
2022-10-19T04:24:19.706Z,0
2022-10-19T04:25:19.211Z,0
2022-10-19T04:26:19.416Z,0
2022-10-19T04:27:19.673Z,0
2022-10-19T04:28:20.117Z,0
2022-10-19T04:29:19.395Z,0
2022-10-19T04:30:19.103Z,0
2022-10-19T04:31:19.096Z,0
2022-10-19T04:32:19.095Z,0
2022-10-19T04:33:19.102Z,0
2022-10-19T04:34:19.101Z,0
2022-10-19T04:35:19.090Z,0
2022-10-19T04:36:19.121Z,0
2022-10-19T04:37:19.126Z,0
2022-10-19T04:38:19.116Z,0
2022-10-19T04:39:19.141Z,0
2022-10-19T04:40:19.110Z,0
2022-10-19T04:41:19.154Z,0
2022-10-19T04:42:19.533Z,0
2022-10-19T04:43:19.679Z,0
2022-10-19T04:44:19.142Z,0
2022-10-19T04:45:19.140Z,0
2022-10-19T04:46:19.103Z,0
2022-10-19T04:47:19.097Z,0
2022-10-19T04:48:19.205Z,0
2022-10-19T04:49:19.549Z,0
2022-10-19T04:50:19.128Z,0
2022-10-19T04:51:19.133Z,0
2022-10-19T04:52:19.101Z,0
2022-10-19T04:53:19.147Z,0
2022-10-19T04:54:19.107Z,0
2022-10-19T04:55:19.102Z,0
2022-10-19T04:56:19.142Z,0
2022-10-19T04:57:19.100Z,0
2022-10-19T04:58:19.125Z,0
2022-10-19T04:59:19.114Z,0
2022-10-19T05:00:19.161Z,0
2022-10-19T05:01:19.178Z,0
2022-10-19T05:02:19.109Z,0
2022-10-19T05:03:19.112Z,0
2022-10-19T05:04:19.109Z,0
2022-10-19T05:05:19.123Z,0
2022-10-19T05:06:19.149Z,0
2022-10-19T05:07:19.118Z,0
2022-10-19T05:08:19.113Z,0
2022-10-19T05:09:19.111Z,0
2022-10-19T05:10:19.115Z,0
2022-10-19T05:11:19.145Z,0
2022-10-19T05:12:19.099Z,0
2022-10-19T05:13:19.107Z,0
2022-10-19T05:14:19.145Z,0
2022-10-19T05:15:19.095Z,0
2022-10-19T05:16:19.143Z,0.23
2022-10-19T05:17:19.111Z,0.23
2022-10-19T05:18:19.106Z,0.23
2022-10-19T05:19:19.117Z,0.23
2022-10-19T05:20:19.125Z,0.46
2022-10-19T05:21:19.139Z,0.46
2022-10-19T05:22:19.099Z,0.46
2022-10-19T05:23:19.700Z,0.69
2022-10-19T05:24:19.121Z,0.92
2022-10-19T05:25:19.474Z,1.15
2022-10-19T05:26:19.698Z,1.38
2022-10-19T05:27:19.119Z,1.61
2022-10-19T05:28:19.114Z,2.07
2022-10-19T05:29:19.097Z,2.53
2022-10-19T05:30:19.106Z,2.99
2022-10-19T05:31:19.119Z,3.68
2022-10-19T05:32:19.103Z,4.37
2022-10-19T05:33:19.118Z,5.29
2022-10-19T05:34:19.123Z,6.44
2022-10-19T05:35:21.495Z,7.82
2022-10-19T05:36:19.111Z,9.43
2022-10-19T05:37:19.100Z,10.83
2022-10-19T05:38:19.126Z,13.33
2022-10-19T05:39:19.112Z,15.83
2022-10-19T05:40:19.114Z,20
2022-10-19T05:41:19.105Z,23.33
2022-10-19T05:42:19.215Z,28.33
2022-10-19T05:43:19.403Z,33.33
2022-10-19T05:44:19.125Z,40
2022-10-19T05:45:19.120Z,46.67
2022-10-19T05:46:19.112Z,54.17
2022-10-19T05:47:19.098Z,63.33
2022-10-19T05:48:19.130Z,72.5
2022-10-19T05:49:19.106Z,82.5
2022-10-19T05:50:19.099Z,93.33
2022-10-19T05:51:19.099Z,105
2022-10-19T05:52:19.115Z,117.5
2022-10-19T05:53:19.104Z,132.5
2022-10-19T05:54:19.132Z,147.5
2022-10-19T05:55:19.110Z,160.83
2022-10-19T05:56:19.112Z,174.17
2022-10-19T05:57:19.142Z,188.33
2022-10-19T05:58:19.098Z,200
2022-10-19T05:59:19.118Z,212.5
2022-10-19T06:00:19.109Z,222.5
2022-10-19T06:01:19.117Z,243.33
2022-10-19T06:02:19.109Z,260
2022-10-19T06:03:19.107Z,280.83
2022-10-19T06:04:19.117Z,305.83
2022-10-19T06:05:19.107Z,332.5
2022-10-19T06:06:19.113Z,355
2022-10-19T06:07:19.128Z,387.5
2022-10-19T06:08:19.120Z,420.83
2022-10-19T06:09:19.098Z,429.17
2022-10-19T06:10:19.123Z,470.83
2022-10-19T06:11:19.098Z,502.5
2022-10-19T06:12:20.431Z,526.67
2022-10-19T06:13:19.111Z,572.5
2022-10-19T06:14:19.106Z,598.33
2022-10-19T06:15:19.116Z,644.17
2022-10-19T06:16:19.110Z,693.33
2022-10-19T06:17:19.130Z,723.33
2022-10-19T06:18:19.115Z,745.83
2022-10-19T06:19:19.151Z,777.5
2022-10-19T06:20:19.110Z,835
2022-10-19T06:21:19.112Z,855.83
2022-10-19T06:22:19.099Z,858.33
2022-10-19T06:23:19.098Z,930.83
2022-10-19T06:24:19.116Z,1023.33
2022-10-19T06:25:19.577Z,1055
2022-10-19T06:26:19.093Z,1060.83
2022-10-19T06:27:19.164Z,1085
2022-10-19T06:28:19.107Z,1087.5
2022-10-19T06:29:19.107Z,1089.17
2022-10-19T06:30:19.179Z,1091.67
2022-10-19T06:31:19.101Z,1126.67
2022-10-19T06:32:19.320Z,1166.67
2022-10-19T06:33:19.115Z,1205
2022-10-19T06:34:19.159Z,1246.67
2022-10-19T06:35:19.103Z,1266.67
2022-10-19T06:36:19.114Z,1287.5
2022-10-19T06:37:19.111Z,1324.17
2022-10-19T06:38:19.104Z,1319.17
2022-10-19T06:39:19.102Z,1360.83
2022-10-19T06:40:19.147Z,1440.83
2022-10-19T06:41:19.122Z,1469.17
2022-10-19T06:42:19.126Z,1481.67
2022-10-19T06:43:19.131Z,1480
2022-10-19T06:44:19.096Z,1489.17
2022-10-19T06:45:19.120Z,1456.67
2022-10-19T06:46:19.101Z,1420.83
2022-10-19T06:47:19.111Z,1365
2022-10-19T06:48:19.123Z,1355.83
2022-10-19T06:49:19.100Z,1325.83
2022-10-19T06:50:19.424Z,1255
2022-10-19T06:51:19.713Z,1291.67
2022-10-19T06:52:19.987Z,1281.67
2022-10-19T06:53:19.134Z,1310
2022-10-19T06:54:19.345Z,1319.17
2022-10-19T06:55:19.630Z,1350
2022-10-19T06:56:19.509Z,1415.83
2022-10-19T06:57:19.262Z,1397.5
2022-10-19T06:58:19.122Z,1420
2022-10-19T06:59:19.091Z,1454.17
2022-10-19T07:00:19.114Z,1503.33
2022-10-19T07:01:19.153Z,1500
2022-10-19T07:02:19.401Z,1480
2022-10-19T07:03:19.141Z,1465.83
2022-10-19T07:04:19.399Z,1563.33
2022-10-19T07:05:19.123Z,1550.83
2022-10-19T07:06:19.119Z,1625
2022-10-19T07:07:19.117Z,1544.17
2022-10-19T07:08:19.101Z,1653.33
2022-10-19T07:09:19.105Z,1764.17
2022-10-19T07:10:19.119Z,1831.67
2022-10-19T07:11:19.095Z,1855.83
2022-10-19T07:12:19.121Z,1904.17
2022-10-19T07:13:19.127Z,1866.67
2022-10-19T07:14:19.102Z,1884.17
2022-10-19T07:15:19.118Z,1912.5
2022-10-19T07:16:20.863Z,1915
2022-10-19T07:17:19.123Z,1966.67
2022-10-19T07:18:19.257Z,1975
2022-10-19T07:19:19.114Z,2119.17
2022-10-19T07:20:19.111Z,2180
2022-10-19T07:21:19.112Z,2245
2022-10-19T07:22:21.330Z,2205
2022-10-19T07:23:19.125Z,2245
2022-10-19T07:24:19.129Z,2280.83
2022-10-19T07:25:19.101Z,2309.17
2022-10-19T07:26:19.094Z,2320
2022-10-19T07:27:19.108Z,2210
2022-10-19T07:28:19.122Z,2302.5
2022-10-19T07:29:19.143Z,2341.67
2022-10-19T07:30:19.361Z,2346.67
2022-10-19T07:31:19.096Z,2378.33
2022-10-19T07:32:19.091Z,2404.17
2022-10-19T07:33:19.100Z,2408.33
2022-10-19T07:34:19.142Z,2435.83
2022-10-19T07:35:19.098Z,2431.67
2022-10-19T07:36:19.099Z,2425.83
2022-10-19T07:37:19.115Z,2358.33
2022-10-19T07:38:19.105Z,2485
2022-10-19T07:39:19.135Z,2439.17
2022-10-19T07:40:19.143Z,2457.5
2022-10-19T07:41:19.272Z,2465.83
2022-10-19T07:42:19.113Z,2485.83
2022-10-19T07:43:19.122Z,2515
2022-10-19T07:44:19.099Z,2471.67
2022-10-19T07:45:19.150Z,2453.33
2022-10-19T07:46:19.095Z,2502.5
2022-10-19T07:47:19.110Z,2562.5
2022-10-19T07:48:19.114Z,2613.33
2022-10-19T07:49:19.122Z,2630.83
2022-10-19T07:50:19.113Z,2662.5
2022-10-19T07:51:19.194Z,2726.67
2022-10-19T07:52:19.194Z,2782.5
2022-10-19T07:53:19.099Z,2788.33
2022-10-19T07:54:19.125Z,2804.17
2022-10-19T07:55:19.107Z,2828.33
2022-10-19T07:56:19.398Z,2874.17
2022-10-19T07:57:19.630Z,2903.33
2022-10-19T07:58:19.703Z,2928.33
2022-10-19T07:59:19.138Z,2965
2022-10-19T08:00:19.120Z,3011.67
2022-10-19T08:01:19.139Z,3022.5
2022-10-19T08:02:19.140Z,3031.67
2022-10-19T08:03:57.449Z,3032.5
2022-10-19T08:05:00.067Z,3000
2022-10-19T08:05:19.137Z,2977.5
2022-10-19T08:06:19.140Z,2986.67
2022-10-19T08:07:19.110Z,2997.5
2022-10-19T08:08:19.111Z,3006.67
2022-10-19T08:09:40.420Z,3038.33
2022-10-19T08:10:19.090Z,3057.5
2022-10-19T08:11:19.115Z,3161.67
2022-10-19T08:12:19.109Z,3598.33
2022-10-19T08:13:19.116Z,5217.5
2022-10-19T08:14:19.133Z,7475
2022-10-19T08:15:19.191Z,8614.17
2022-10-19T08:16:19.094Z,8956.67
2022-10-19T08:17:19.110Z,9085
2022-10-19T08:18:19.147Z,9092.5
2022-10-19T08:19:19.096Z,8740.83
2022-10-19T08:20:19.113Z,8259.17
2022-10-19T08:21:19.105Z,8006.67
2022-10-19T08:22:19.102Z,8958.33
2022-10-19T08:23:19.113Z,9253.33
2022-10-19T08:24:19.150Z,9322.5
2022-10-19T08:25:19.114Z,9201.67
2022-10-19T08:26:19.124Z,9318.33
2022-10-19T08:27:19.125Z,9325.83
2022-10-19T08:28:19.107Z,9563.33
2022-10-19T08:29:19.119Z,9696.67
2022-10-19T08:30:19.097Z,9675.83
2022-10-19T08:31:19.116Z,9929.17
2022-10-19T08:32:19.115Z,10104.17
2022-10-19T08:33:19.111Z,10292.5
2022-10-19T08:34:19.138Z,10265.83
2022-10-19T08:35:19.103Z,9873.33
2022-10-19T08:36:19.167Z,9930
2022-10-19T08:37:26.153Z,10507.5
2022-10-19T08:38:19.317Z,10810.83
2022-10-19T08:39:19.134Z,10900.83
2022-10-19T08:40:19.098Z,10988.33
2022-10-19T08:41:19.363Z,11105
2022-10-19T08:42:19.144Z,11187.5
2022-10-19T08:43:19.098Z,11284.17
2022-10-19T08:44:19.101Z,11401.67
2022-10-19T08:45:19.117Z,11437.5
2022-10-19T08:46:19.132Z,11071.67
2022-10-19T08:47:23.158Z,9590
2022-10-19T08:48:19.108Z,11301.67
2022-10-19T08:49:19.127Z,11531.67
2022-10-19T08:50:19.112Z,11786.67
2022-10-19T08:51:19.113Z,12137.5
2022-10-19T08:52:19.107Z,12135
2022-10-19T08:53:19.154Z,12368.33
2022-10-19T08:54:19.105Z,11999.17
2022-10-19T08:55:20.425Z,12494.17
2022-10-19T08:56:32.778Z,12715
2022-10-19T08:57:19.107Z,12167.5
2022-10-19T08:58:19.206Z,12438.33
2022-10-19T08:59:19.407Z,12731.67
2022-10-19T09:00:19.112Z,12466.67
2022-10-19T09:01:19.094Z,12321.67
2022-10-19T09:02:19.104Z,12427.5
2022-10-19T09:03:22.952Z,12475
2022-10-19T09:04:19.131Z,12604.17
2022-10-19T09:05:19.102Z,12752.5
2022-10-19T09:06:19.133Z,12744.17
2022-10-19T09:07:19.099Z,12748.33
2022-10-19T09:08:19.112Z,12949.17
2022-10-19T09:09:19.125Z,12307.5
2022-10-19T09:10:19.169Z,12223.33
2022-10-19T09:11:19.108Z,12539.17
2022-10-19T09:12:19.112Z,12326.67
2022-10-19T09:13:19.310Z,11322.5
2022-10-19T09:14:19.096Z,12432.5
2022-10-19T09:15:19.111Z,12235.83
2022-10-19T09:16:19.115Z,11959.17
2022-10-19T09:17:19.109Z,12424.17
2022-10-19T09:18:19.107Z,12295.83
2022-10-19T09:19:19.099Z,12220
2022-10-19T09:20:19.153Z,11847.5
2022-10-19T09:21:19.108Z,12038.33
2022-10-19T09:22:19.115Z,12495
2022-10-19T09:23:19.115Z,11980.83
2022-10-19T09:24:19.224Z,12137.5
2022-10-19T09:25:19.092Z,11876.67
2022-10-19T09:26:19.109Z,12945.83
2022-10-19T09:27:19.104Z,13090
2022-10-19T09:28:19.126Z,13198.33
2022-10-19T09:29:19.107Z,13111.67
2022-10-19T09:30:19.156Z,13420.83
2022-10-19T09:31:19.117Z,13380.83
2022-10-19T09:32:19.105Z,13863.33
2022-10-19T09:33:19.115Z,14028.33
2022-10-19T09:34:19.111Z,13626.67
2022-10-19T09:35:19.120Z,14031.67
2022-10-19T09:36:23.011Z,13660.83
2022-10-19T09:37:24.982Z,13154.17
2022-10-19T09:38:19.099Z,14240.83
2022-10-19T09:39:19.114Z,14186.67
2022-10-19T09:40:19.156Z,14215.83
2022-10-19T09:41:19.097Z,13425.83
2022-10-19T09:42:19.113Z,14085
2022-10-19T09:43:19.104Z,13909.17
2022-10-19T09:44:19.104Z,9988.33
2022-10-19T09:45:19.127Z,13047.5
2022-10-19T09:46:20.408Z,14657.5
2022-10-19T09:47:19.107Z,14599.17
2022-10-19T09:48:19.115Z,14942.5
2022-10-19T09:49:19.100Z,8106.67
2022-10-19T09:50:19.119Z,10392.5
2022-10-19T09:51:19.106Z,8426.67
2022-10-19T09:52:19.113Z,14435
2022-10-19T09:53:19.105Z,8998.33
2022-10-19T09:54:19.381Z,9016.67
2022-10-19T09:55:19.686Z,7413.33
2022-10-19T09:56:19.907Z,14285
2022-10-19T09:57:19.144Z,12447.5
2022-10-19T09:58:19.392Z,8373.33
2022-10-19T09:59:20.161Z,5861.67
2022-10-19T10:00:19.105Z,15667.5
2022-10-19T10:01:19.103Z,15939.17
2022-10-19T10:02:19.101Z,15487.5
2022-10-19T10:03:19.104Z,14394.17
2022-10-19T10:04:19.106Z,15455
2022-10-19T10:05:19.105Z,11706.67
2022-10-19T10:06:19.106Z,15142.5
2022-10-19T10:07:19.105Z,15324.17
2022-10-19T10:08:19.109Z,15455
2022-10-19T10:09:19.207Z,9142.5
2022-10-19T10:10:19.505Z,12416.67
2022-10-19T10:11:19.171Z,14828.33
2022-10-19T10:12:19.378Z,15877.5
2022-10-19T10:13:19.264Z,15822.5
2022-10-19T10:14:19.125Z,15991.67
2022-10-19T10:15:19.189Z,15971.67
2022-10-19T10:16:19.398Z,15823.33
2022-10-19T10:17:19.321Z,15968.33
2022-10-19T10:18:19.104Z,16305
2022-10-19T10:19:19.111Z,16085.83
2022-10-19T10:20:19.117Z,15964.17
2022-10-19T10:21:22.908Z,15773.33
2022-10-19T10:22:19.108Z,16005.83
2022-10-19T10:23:19.098Z,15323.33
2022-10-19T10:24:19.107Z,15286.67
2022-10-19T10:25:19.094Z,15665
2022-10-19T10:26:19.098Z,15664.17
2022-10-19T10:27:19.096Z,15455.83
2022-10-19T10:28:19.116Z,15820.83
2022-10-19T10:29:19.111Z,15508.33
2022-10-19T10:30:19.105Z,16089.17
2022-10-19T10:31:19.111Z,16090
2022-10-19T10:32:19.117Z,14940.83
2022-10-19T10:33:26.841Z,14431.67
2022-10-19T10:34:23.073Z,14442.5
2022-10-19T10:35:19.114Z,14172.5
2022-10-19T10:36:19.093Z,16462.5
2022-10-19T10:37:19.111Z,16247.5
2022-10-19T10:38:19.099Z,17173.33
2022-10-19T10:39:19.124Z,17029.17
2022-10-19T10:40:22.640Z,16934.17
2022-10-19T10:41:19.104Z,17451.67
2022-10-19T10:42:19.096Z,17372.5
2022-10-19T10:43:19.108Z,17281.67
2022-10-19T10:44:19.318Z,16650
2022-10-19T10:45:19.086Z,17015
2022-10-19T10:46:19.096Z,17370.83
2022-10-19T10:47:19.102Z,16484.17
2022-10-19T10:48:19.097Z,16792.5
2022-10-19T10:49:19.111Z,17230.83
2022-10-19T10:50:19.116Z,17020
2022-10-19T10:51:19.101Z,16969.17
2022-10-19T10:52:19.114Z,17140.83
2022-10-19T10:53:19.111Z,16602.5
2022-10-19T10:54:19.105Z,16053.33
2022-10-19T10:55:19.195Z,16040.83
2022-10-19T10:56:19.098Z,16445
2022-10-19T10:57:19.143Z,14904.17
2022-10-19T10:58:19.099Z,15270
2022-10-19T10:59:19.105Z,16116.67
2022-10-19T11:00:19.113Z,16129.17
2022-10-19T11:01:19.120Z,16268.33
2022-10-19T11:02:19.159Z,16240
2022-10-19T11:03:19.095Z,16376.67
2022-10-19T11:04:19.101Z,16840.83
2022-10-19T11:05:19.119Z,17165
2022-10-19T11:06:19.158Z,17664.17
2022-10-19T11:07:19.350Z,17382.5
2022-10-19T11:08:19.107Z,17013.33
2022-10-19T11:09:19.098Z,16536.67
2022-10-19T11:10:19.102Z,17285.83
2022-10-19T11:11:19.112Z,16019.17
2022-10-19T11:12:19.098Z,16663.33
2022-10-19T11:13:19.100Z,17042.5
2022-10-19T11:14:19.113Z,17242.5
2022-10-19T11:15:19.174Z,16965.83
2022-10-19T11:16:19.112Z,17008.33
2022-10-19T11:17:19.125Z,17727.5
2022-10-19T11:18:19.217Z,17090.83
2022-10-19T11:19:19.108Z,17652.5
2022-10-19T11:20:19.105Z,17132.5
2022-10-19T11:21:19.103Z,17452.5
2022-10-19T11:22:21.228Z,17890
2022-10-19T11:23:19.107Z,17868.33
2022-10-19T11:24:19.173Z,17565.83
2022-10-19T11:25:19.110Z,15909.17
2022-10-19T11:26:19.095Z,15185.83
2022-10-19T11:27:19.098Z,16870
2022-10-19T11:28:19.120Z,16260.83
2022-10-19T11:29:19.135Z,15615
2022-10-19T11:30:19.233Z,16365
2022-10-19T11:31:19.112Z,15770
2022-10-19T11:32:19.098Z,16300
2022-10-19T11:33:19.101Z,16140.83
2022-10-19T11:34:21.138Z,16067.5
2022-10-19T11:35:19.108Z,14285.83
2022-10-19T11:36:19.112Z,13355.83
2022-10-19T11:37:19.096Z,15117.5
2022-10-19T11:38:21.244Z,16247.5
2022-10-19T11:39:19.098Z,16402.5
2022-10-19T11:40:22.048Z,16244.17
2022-10-19T11:41:19.498Z,16655.83
2022-10-19T11:42:19.092Z,16754.17
2022-10-19T11:43:19.656Z,16797.5
2022-10-19T11:44:19.115Z,16225.83
2022-10-19T11:45:19.098Z,15987.5
2022-10-19T11:46:19.127Z,15499.17
2022-10-19T11:47:19.104Z,15780.83
2022-10-19T11:48:19.377Z,15849.17
2022-10-19T11:49:19.685Z,16235.83
2022-10-19T11:50:19.719Z,13401.67
2022-10-19T11:51:21.579Z,15364.17
2022-10-19T11:52:19.444Z,15597.5
2022-10-19T11:53:19.708Z,15271.67
2022-10-19T11:54:19.431Z,16533.33
2022-10-19T11:55:19.107Z,16044.17
2022-10-19T11:56:19.109Z,15455
2022-10-19T11:57:19.100Z,14815.83
2022-10-19T11:58:19.142Z,15858.33
2022-10-19T11:59:19.411Z,16353.33
2022-10-19T12:00:37.489Z,16891.67
2022-10-19T12:01:19.372Z,16546.67
2022-10-19T12:02:19.173Z,15779.17
2022-10-19T12:03:19.109Z,15837.5
2022-10-19T12:04:19.126Z,15708.33
2022-10-19T12:05:19.114Z,16438.33
2022-10-19T12:06:19.095Z,17080
2022-10-19T12:07:19.098Z,17452.5
2022-10-19T12:09:19.177Z,17295.83
2022-10-19T12:10:19.106Z,17543.33
2022-10-19T12:11:19.096Z,17684.17
2022-10-19T12:12:19.119Z,17635.83
2022-10-19T12:13:19.127Z,16435.83
2022-10-19T12:14:19.128Z,18393.33
2022-10-19T12:15:19.103Z,18778.33
2022-10-19T12:16:19.326Z,19098.33
2022-10-19T12:17:19.107Z,19649.17
2022-10-19T12:18:19.137Z,19510
2022-10-19T12:19:19.123Z,20591.67
2022-10-19T12:20:19.818Z,21017.5
2022-10-19T12:21:19.111Z,21441.67
2022-10-19T12:22:19.106Z,21511.67
2022-10-19T12:23:19.144Z,23038.33
2022-10-19T12:24:19.141Z,23493.33
2022-10-19T12:25:19.146Z,23914.17
2022-10-19T12:27:19.111Z,23982.5
2022-10-19T12:28:19.211Z,23865.83
2022-10-19T12:29:19.128Z,23923.33
2022-10-19T12:30:19.098Z,24617.5
2022-10-19T12:31:19.118Z,24009.17
2022-10-19T12:32:19.107Z,24148.33
2022-10-19T12:33:19.139Z,22482.5
2022-10-19T12:34:19.095Z,23245
2022-10-19T12:36:19.106Z,23439.17
2022-10-19T12:37:19.099Z,22821.67
2022-10-19T12:38:19.159Z,21890.83
2022-10-19T12:39:19.145Z,20222.5
2022-10-19T12:40:19.344Z,20156.67
2022-10-19T12:41:19.110Z,19733.33
2022-10-19T12:42:19.105Z,21439.17
2022-10-19T12:43:19.103Z,21168.33
2022-10-19T12:44:19.126Z,20584.17
2022-10-19T12:45:19.103Z,17134.17
2022-10-19T12:46:19.103Z,21203.33
2022-10-19T12:47:19.116Z,21538.33
2022-10-19T12:48:19.113Z,21401.67
2022-10-19T12:49:19.114Z,21660
2022-10-19T12:51:19.100Z,21048.33
2022-10-19T12:52:19.113Z,20831.67
2022-10-19T12:53:19.150Z,20512.5
2022-10-19T12:54:19.117Z,20565.83
2022-10-19T12:55:19.122Z,19848.33
2022-10-19T12:56:19.115Z,20854.17
2022-10-19T12:57:22.580Z,18935.83
2022-10-19T12:58:19.112Z,18659.17
2022-10-19T12:59:19.111Z,16360
2022-10-19T13:00:19.109Z,12475
2022-10-19T13:01:19.223Z,6017.5
2022-10-19T13:02:19.116Z,9594.17
2022-10-19T13:03:19.418Z,4834.17
2022-10-19T13:04:19.120Z,4770.83
2022-10-19T13:05:19.187Z,4689.17
2022-10-19T13:06:19.376Z,4650
2022-10-19T13:07:19.660Z,4709.17
2022-10-19T13:08:19.120Z,4785.83
2022-10-19T13:09:19.107Z,4812.5
2022-10-19T13:10:19.095Z,4827.5
2022-10-19T13:11:19.100Z,4832.5
2022-10-19T13:12:21.327Z,4807.5